createdAt,value
2022-10-17T00:01:04.082Z,15.22
2022-10-17T00:06:07.125Z,15.31
2022-10-17T00:11:12.846Z,15.30
2022-10-17T00:16:14.549Z,15.26
2022-10-17T00:21:19.036Z,15.18
2022-10-17T00:26:20.991Z,15.04
2022-10-17T00:31:23.391Z,14.90
2022-10-17T00:36:25.533Z,14.67
2022-10-17T00:41:28.598Z,14.53
2022-10-17T00:46:31.591Z,14.57
2022-10-17T00:51:35.480Z,14.69
2022-10-17T00:56:36.939Z,14.67
2022-10-17T01:01:39.804Z,14.67
2022-10-17T01:06:41.133Z,14.72
2022-10-17T01:12:11.810Z,14.81
2022-10-17T01:17:32.844Z,14.86
2022-10-17T01:22:41.239Z,14.84
2022-10-17T01:28:00.397Z,14.93
2022-10-17T01:33:07.603Z,15.11
2022-10-17T01:38:18.247Z,15.07
2022-10-17T01:43:34.824Z,15.02
2022-10-17T01:48:37.446Z,15.01
2022-10-17T01:53:42.693Z,15.21
2022-10-17T01:58:47.823Z,15.28
2022-10-17T02:03:50.814Z,15.25
2022-10-17T02:08:52.155Z,15.27
2022-10-17T02:13:53.471Z,15.19
2022-10-17T02:18:54.773Z,15.19
2022-10-17T02:24:05.068Z,15.21
2022-10-17T02:29:14.029Z,15.27
2022-10-17T02:34:21.552Z,15.20
2022-10-17T02:39:25.099Z,15.19
2022-10-17T02:44:27.818Z,15.13
2022-10-17T02:49:31.559Z,15.16
2022-10-17T02:54:38.774Z,15.07
2022-10-17T02:59:41.799Z,15.00
2022-10-17T03:04:44.064Z,14.97
2022-10-17T03:09:45.381Z,14.99
2022-10-17T03:14:46.687Z,15.02
2022-10-17T03:19:47.989Z,15.08
2022-10-17T03:24:49.316Z,15.05
2022-10-17T03:29:50.614Z,15.06
2022-10-17T03:34:51.919Z,14.93
2022-10-17T03:39:53.215Z,14.85
2022-10-17T03:44:54.512Z,14.75
2022-10-17T03:49:55.871Z,14.72
2022-10-17T03:54:57.182Z,14.65
2022-10-17T03:59:58.547Z,14.60
2022-10-17T04:04:59.850Z,14.67
2022-10-17T04:10:01.170Z,14.58
2022-10-17T04:15:02.600Z,14.50
2022-10-17T04:20:04.113Z,14.41
2022-10-17T04:25:05.628Z,14.35
2022-10-17T04:30:07.266Z,14.34
2022-10-17T04:35:08.906Z,14.34
2022-10-17T04:40:10.410Z,14.33
2022-10-17T04:45:12.886Z,14.40
2022-10-17T04:50:14.194Z,14.50
2022-10-17T04:55:15.495Z,14.65
2022-10-17T05:00:16.882Z,14.51
2022-10-17T05:05:18.201Z,14.40
2022-10-17T05:10:19.698Z,14.36
2022-10-17T05:15:20.993Z,14.33
2022-10-17T05:20:22.292Z,14.38
2022-10-17T05:25:24.508Z,14.40
2022-10-17T05:30:25.859Z,14.46
2022-10-17T05:35:27.179Z,14.54
2022-10-17T05:40:28.507Z,14.47
2022-10-17T05:45:29.848Z,14.41
2022-10-17T05:50:31.207Z,14.38
2022-10-17T05:55:32.522Z,14.36
2022-10-17T06:00:33.918Z,14.44
2022-10-17T06:05:35.387Z,14.39
2022-10-17T06:10:36.686Z,14.36
2022-10-17T06:15:37.990Z,14.47
2022-10-17T06:20:43.856Z,14.53
2022-10-17T06:25:47.373Z,14.85
2022-10-17T06:30:48.688Z,15.12
2022-10-17T06:35:53.830Z,15.73
2022-10-17T06:40:57.748Z,16.67
2022-10-17T06:45:59.069Z,16.89
2022-10-17T06:51:00.832Z,17.36
2022-10-17T06:56:03.743Z,18.41
2022-10-17T07:01:06.794Z,18.53
2022-10-17T07:06:08.275Z,18.60
2022-10-17T07:11:10.428Z,19.27
2022-10-17T07:16:11.836Z,18.08
2022-10-17T07:21:13.191Z,18.32
2022-10-17T07:26:15.705Z,18.51
2022-10-17T07:31:18.406Z,18.16
2022-10-17T07:36:19.766Z,17.45
2022-10-17T07:41:21.942Z,17.25
2022-10-17T07:46:23.434Z,16.93
2022-10-17T07:51:24.834Z,17.62
2022-10-17T07:56:26.239Z,18.10
2022-10-17T08:01:28.224Z,18.46
2022-10-17T08:06:29.581Z,18.57
2022-10-17T08:11:31.205Z,18.82
2022-10-17T08:16:32.517Z,18.98
2022-10-17T08:21:33.836Z,19.13
2022-10-17T08:26:38.009Z,20.56
2022-10-17T08:31:45.267Z,21.01
2022-10-17T08:36:49.478Z,20.36
2022-10-17T08:42:09.278Z,19.38
2022-10-17T08:47:12.783Z,18.65
2022-10-17T08:52:32.597Z,18.58
2022-10-17T08:57:34.139Z,18.52
2022-10-17T09:02:53.701Z,18.38
2022-10-17T09:07:58.291Z,18.75
2022-10-17T09:13:21.137Z,19.63
2022-10-17T09:18:31.741Z,22.10
2022-10-17T09:24:03.974Z,22.93
2022-10-17T09:29:20.159Z,21.38
2022-10-17T09:34:25.268Z,20.58
2022-10-17T09:39:31.953Z,21.08
2022-10-17T09:44:34.579Z,21.36
2022-10-17T09:49:38.232Z,20.67
2022-10-17T09:54:45.002Z,20.12
2022-10-17T09:59:48.091Z,20.44
2022-10-17T10:05:08.522Z,20.61
2022-10-17T10:10:27.865Z,20.78
2022-10-17T10:15:32.435Z,20.93
2022-10-17T10:20:35.172Z,22.57
2022-10-17T10:25:36.793Z,22.14
2022-10-17T10:30:39.973Z,24.08
2022-10-17T10:35:41.575Z,24.68
2022-10-17T10:40:48.075Z,23.26
2022-10-17T10:45:49.645Z,22.85
2022-10-17T10:50:54.133Z,22.31
2022-10-17T10:55:58.886Z,21.96
2022-10-17T11:01:02.869Z,22.00
2022-10-17T11:06:06.542Z,21.97
2022-10-17T11:11:18.244Z,22.21
2022-10-17T11:16:28.821Z,22.36
2022-10-17T11:21:48.817Z,22.98
2022-10-17T11:26:59.205Z,22.88
2022-10-17T11:32:03.355Z,23.15
2022-10-17T11:37:07.979Z,23.24
2022-10-17T11:42:15.006Z,23.28
2022-10-17T11:47:16.311Z,23.06
2022-10-17T11:58:19.491Z,22.74
2022-10-17T12:03:39.948Z,22.75
2022-10-17T12:09:00.249Z,22.69
2022-10-17T12:14:05.749Z,22.52
2022-10-17T12:19:07.531Z,22.45
2022-10-17T12:24:20.293Z,22.34
2022-10-17T12:29:28.645Z,22.12
2022-10-17T12:34:29.978Z,21.90
2022-10-17T12:39:31.291Z,21.84
2022-10-17T12:44:34.980Z,21.82
2022-10-17T12:49:45.696Z,21.91
2022-10-17T12:55:07.141Z,21.71
2022-10-17T13:00:16.147Z,21.71
2022-10-17T13:05:27.003Z,21.74
2022-10-17T13:10:29.618Z,21.67
2022-10-17T13:15:31.126Z,21.56
2022-10-17T13:20:32.598Z,21.40
2022-10-17T13:25:37.625Z,21.33
2022-10-17T13:30:45.724Z,21.28
2022-10-17T13:36:00.056Z,21.17
2022-10-17T13:41:30.130Z,21.17
2022-10-17T13:46:37.897Z,21.30
2022-10-17T13:51:42.922Z,21.44
2022-10-17T13:56:44.752Z,21.34
2022-10-17T14:01:49.679Z,21.23
2022-10-17T14:06:52.222Z,21.34
2022-10-17T14:12:13.018Z,21.26
2022-10-17T14:17:15.120Z,21.24
2022-10-17T14:22:22.317Z,21.21
2022-10-17T14:27:30.006Z,21.09
2022-10-17T14:32:36.104Z,20.99
2022-10-17T14:37:40.550Z,21.02
2022-10-17T14:42:41.975Z,20.84
2022-10-17T14:47:44.272Z,20.73
2022-10-17T14:52:58.872Z,20.56
2022-10-17T14:58:00.654Z,20.38
2022-10-17T15:03:02.033Z,20.31
2022-10-17T15:08:03.418Z,20.14
2022-10-17T15:13:26.687Z,20.24
2022-10-17T15:18:26.078Z,20.34
2022-10-17T15:23:27.372Z,20.24
2022-10-17T15:28:28.714Z,20.14
2022-10-17T15:33:30.097Z,20.02
2022-10-17T15:38:31.447Z,19.85
2022-10-17T15:43:32.765Z,19.69
2022-10-17T15:48:34.144Z,19.42
2022-10-17T15:53:35.871Z,19.30
2022-10-17T15:58:38.410Z,19.21
2022-10-17T16:03:39.876Z,19.10
2022-10-17T16:08:41.183Z,18.88
2022-10-17T16:13:53.286Z,18.82
2022-10-17T16:18:54.764Z,18.78
2022-10-17T16:23:56.519Z,18.65
2022-10-17T16:28:58.321Z,18.55
2022-10-17T16:34:00.395Z,18.47
2022-10-17T16:39:01.942Z,18.39
2022-10-17T16:44:05.297Z,18.29
2022-10-17T16:49:07.125Z,18.19
2022-10-17T16:54:08.538Z,18.08
2022-10-17T16:59:11.106Z,17.98
2022-10-17T17:04:12.474Z,17.90
2022-10-17T17:09:14.116Z,17.82
2022-10-17T17:14:15.445Z,17.77
2022-10-17T17:19:20.367Z,17.68
2022-10-17T17:24:21.685Z,17.56
2022-10-17T17:29:23.649Z,17.46
2022-10-17T17:34:24.964Z,17.28
2022-10-17T17:39:26.262Z,17.21
2022-10-17T17:44:27.626Z,17.10
2022-10-17T17:49:28.943Z,17.11
2022-10-17T17:54:30.327Z,17.04
2022-10-17T17:59:31.618Z,17.04
2022-10-17T18:04:33.030Z,17.02
2022-10-17T18:09:34.339Z,17.04
2022-10-17T18:14:35.649Z,16.99
2022-10-17T18:19:37.040Z,16.93
2022-10-17T18:24:38.346Z,16.82
2022-10-17T18:29:39.674Z,16.76
2022-10-17T18:34:41.137Z,16.69
2022-10-17T18:39:42.478Z,16.65
2022-10-17T18:44:43.864Z,16.63
2022-10-17T18:49:45.254Z,16.41
2022-10-17T19:01:03.526Z,16.44
2022-10-17T19:06:07.429Z,16.52
2022-10-17T19:11:09.828Z,16.42
2022-10-17T19:16:15.239Z,16.40
2022-10-17T19:21:21.542Z,16.43
2022-10-17T19:26:23.838Z,16.38
2022-10-17T19:31:27.295Z,16.29
2022-10-17T19:36:32.519Z,16.28
2022-10-17T19:41:36.364Z,16.32
2022-10-17T19:46:38.040Z,16.33
2022-10-17T19:51:39.676Z,16.35
2022-10-17T19:56:43.345Z,16.44
2022-10-17T20:01:44.849Z,16.36
2022-10-17T20:06:46.245Z,16.30
2022-10-17T20:11:49.025Z,16.21
2022-10-17T20:16:51.921Z,16.16
2022-10-17T20:21:53.312Z,16.11
2022-10-17T20:26:54.635Z,16.09
2022-10-17T20:31:57.609Z,16.07
2022-10-17T20:36:58.934Z,15.99
2022-10-17T20:42:00.238Z,15.97
2022-10-17T20:47:02.694Z,15.92
2022-10-17T20:52:04.385Z,15.88
2022-10-17T20:57:05.808Z,15.88
2022-10-17T21:02:07.385Z,15.88
2022-10-17T21:07:08.703Z,15.97
2022-10-17T21:12:10.074Z,15.86
2022-10-17T21:17:11.401Z,15.77
2022-10-17T21:22:12.719Z,15.79
2022-10-17T21:27:15.640Z,15.75
2022-10-17T21:32:31.872Z,15.71
2022-10-17T21:37:38.306Z,15.63
2022-10-17T21:42:39.647Z,15.69
2022-10-17T21:47:41.765Z,15.65
2022-10-17T21:52:46.907Z,15.66
2022-10-17T21:57:48.324Z,15.62
2022-10-17T22:02:49.702Z,15.58
2022-10-17T22:07:51.016Z,15.58
2022-10-17T22:12:52.341Z,15.55
2022-10-17T22:17:53.643Z,15.51
2022-10-17T22:22:55.041Z,15.50
2022-10-17T22:27:56.408Z,15.48
2022-10-17T22:32:57.715Z,15.45
2022-10-17T22:37:59.021Z,15.44
2022-10-17T22:43:00.360Z,15.40
2022-10-17T22:48:01.669Z,15.36
2022-10-17T22:53:03.002Z,15.35
2022-10-17T22:58:04.348Z,15.31
2022-10-17T23:03:05.647Z,15.31
2022-10-17T23:08:06.961Z,15.33
2022-10-17T23:13:08.272Z,15.32
2022-10-17T23:18:10.116Z,15.37
2022-10-17T23:23:11.664Z,15.32
2022-10-17T23:28:13.274Z,15.26
2022-10-17T23:33:14.701Z,15.28
2022-10-17T23:38:16.025Z,15.29
2022-10-17T23:43:17.326Z,15.29
2022-10-17T23:48:18.706Z,15.23
2022-10-17T23:53:20.038Z,15.21
2022-10-17T23:58:21.446Z,15.24
